Aviation Digital Data Service (ADDS)

Output produced by METARs form (0845 UTC 03 August 2021)
found at http://www.aviationweather.gov/metar/data/
 
KCXY 030756Z AUTO 23003KT 10SM CLR 15/12 A3011 RMK AO2 SLP195 T01500122
KCXY 030656Z AUTO 24003KT 10SM CLR 16/12 A3011 RMK AO2 SLP194 T01560122
KCXY 030556Z AUTO 23003KT 10SM CLR 16/13 A3011 RMK AO2 SLP194 T01610128 10261 20161 50005
KCXY 030456Z AUTO 00000KT 10SM CLR 17/13 A3011 RMK AO2 SLP196 T01670133 402780161
KCXY 030356Z AUTO 24003KT 10SM CLR 18/14 A3010 RMK AO2 SLP194 T01780139
KCXY 030256Z AUTO 24004KT 10SM CLR 18/13 A3009 RMK AO2 SLP189 T01780133 53013
KCXY 030156Z AUTO 23003KT 10SM CLR 20/14 A3008 RMK AO2 SLP185 T02000139
KCXY 030056Z 00000KT 10SM CLR 22/13 A3006 RMK AO2 SLP180 T02170133
KCXY 022356Z 36003KT 10SM CLR 26/11 A3005 RMK AO2 SLP176 T02610111 10278 20256 53005
KCXY 022256Z 34005KT 10SM FEW080 27/11 A3004 RMK AO2 SLP171 T02670106
KCXY 022156Z 35006KT 10SM FEW080 27/11 A3004 RMK AO2 SLP171 T02670111
KCXY 022056Z 34005KT 10SM SCT060 BKN075 26/11 A3004 RMK AO2 SLP171 T02610111 56003
KCXY 021956Z 30007KT 10SM SCT065 27/12 A3004 RMK AO2 SLP171 T02670117
KCXY 021856Z 31012KT 10SM FEW055 27/11 A3004 RMK AO2 SLP173 T02670111
KCXY 021756Z 35007KT 10SM SCT049 26/12 A3005 RMK AO2 SLP175 T02610117 10261 20189 58002
KCXY 021656Z 32008KT 10SM FEW042 25/13 A3005 RMK AO2 SLP177 T02500133
KCXY 021556Z 35009KT 310V020 10SM SCT035 23/13 A3006 RMK AO2 SLP177 T02330128
KCXY 021503Z 33012KT 10SM SCT031 22/13 A3006 RMK AO2 T02220128
KCXY 021456Z 32012KT 10SM BKN028 22/13 A3005 RMK AO2 SLP176 T02220133 51014
KCXY 021425Z 32009G17KT 10SM BKN028 22/13 A3005 RMK AO2 T02170133
KCXY 021356Z 33011KT 10SM FEW026 21/13 A3004 RMK AO2 SLP172 T02110133
KCXY 021256Z 31010KT 10SM CLR 20/14 A3003 RMK AO2 SLP170 T02000139
KCXY 021156Z 31006KT 10SM CLR 19/15 A3001 RMK AO2 SLP162 70036 T01890150 10189 20161 52022
KCXY 021056Z 27003KT 6SM BR CLR 16/14 A2999 RMK AO2 SLP154 T01610139
KCXY 020956Z AUTO 31004KT 9SM CLR 17/14 A2997 RMK AO2 SLP149 T01670139
KCXY 020856Z AUTO 27003KT 8SM CLR 16/14 A2995 RMK AO2 SLP141 T01610139 53012
KCXY 020756Z AUTO 00000KT 7SM CLR 16/14 A2993 RMK AO2 SLP135 T01610144
KCXY 020656Z AUTO 29003KT 8SM CLR 17/15 A2992 RMK AO2 SLP130 T01670150
KCXY 020556Z AUTO 27003KT 6SM BR CLR 17/15 A2991 RMK AO2 SLP129 T01670150 10200 20167 58001
KCXY 020456Z AUTO 26003KT 9SM CLR 17/15 A2992 RMK AO2 SLP130 T01670150 402670167
KCXY 020356Z AUTO 26003KT 9SM CLR 17/16 A2992 RMK AO2 SLP129 T01720156
KCXY 020256Z AUTO 00000KT 10SM FEW120 19/16 A2992 RMK AO2 SLP130 T01890156 51018
KCXY 020219Z AUTO 01003KT 10SM SCT008 BKN110 19/16 A2991 RMK AO2 T01890161
KCXY 020156Z AUTO 36003KT 10SM SCT110 19/16 A2990 RMK AO2 SLP125 T01890161
KCXY 020139Z AUTO 03005KT 10SM SCT009 OVC100 19/16 A2990 RMK AO2 T01890161
KCXY 020129Z AUTO 36004KT 10SM BKN010 BKN110 19/17 A2990 RMK AO2 CIG 008V012 T01940167
KCXY 020120Z AUTO 07004KT 10SM SCT008 BKN095 19/16 A2990 RMK AO2 T01940161
KCXY 020113Z AUTO VRB04KT 10SM SCT008 BKN012 BKN095 19/17 A2990 RMK AO2 T01940167
KCXY 020110Z AUTO 04004KT 10SM SCT010 BKN095 19/17 A2989 RMK AO2 T01940167
KCXY 020056Z 08005KT 10SM BKN010 OVC090 19/17 A2988 RMK AO2 CIG 008V013 SLP118 T01940167
KCXY 020041Z 07004KT 10SM BKN010 OVC070 19/17 A2988 RMK AO2 LTG DSNT SE CIG 008V012 T01940167
KCXY 020003Z 00000KT 10SM SCT008 BKN060 OVC110 20/17 A2987 RMK AO2 LTG DSNT E-S T02000167
KCXY 012356Z 08004KT 10SM VCTS BKN060 BKN080 BKN100 19/17 A2986 RMK AO2 LTG DSNT SE AND S RAB05E52 TSE22B25E31E33 SLP112 P0036 60036 T01940167 10261 20189 53018
KCXY 012339Z 00000KT 3SM VCTS RA FEW008 BKN060 OVC080 19/17 A2986 RMK AO2 LTG DSNT ALQDS RAB05 TSE22B25E31E33 P0036 T01940172
KCXY 012332Z VRB04KT 3SM R08/5500VP6000FT TSRA BR FEW008 BKN038 OVC060 19/17 A2986 RMK AO2 LTG DSNT NE AND SW RAB05 TSE22B25E31 P0035 T01890172
KCXY 012330Z 33004KT 3SM R08/4000VP6000FT +RA BR FEW008 BKN025 OVC055 19/17 A2986 RMK AO2 LTG DSNT NE AND SW RAB05 TSE22B25 P0035 T01890172
KCXY 012328Z 36007KT 1SM R08/3500VP6000FT +TSRA BR FEW008 BKN028 OVC038 19/17 A2986 RMK AO2 LTG DSNT NE RAB05 TSE22B25 P0034 T01890167
KCXY 012319Z 01011G20KT 3/4SM R08/3500VP6000FT +TSRA FEW008 BKN027 OVC037 19/17 A2985 RMK AO2 LTG DSNT NE RAB05 TS OHD MOVG ESE P0021 T01940167
KCXY 012316Z 36010G20KT 1 3/4SM R08/4000VP6000FT +TSRA FEW008 BKN030 OVC043 19/17 A2986 RMK AO2 LTG DSNT NE RAB05 TS OHD MOVG ESE P0013 T01940167
KCXY 012314Z 36014G20KT 2SM R08/4000VP6000FT VCTS +RA FEW015 BKN028 OVC043 20/17 A2986 RMK AO2 LTG DSNT NE RAB05 P0008 T02000167
KCXY 012256Z 36008KT 320V040 10SM VCTS SCT042 SCT060 24/18 A2984 RMK AO2 LTG DSNT N AND NW PRESRR SLP104 T02440183
KCXY 012156Z 10008KT 10SM FEW019 25/19 A2980 RMK AO2 SLP091 T02500194
KCXY 012056Z 13011KT 10SM FEW019 26/19 A2981 RMK AO2 SLP094 T02610189 56008
KCXY 012053Z 12006KT 10SM SCT019 26/19 A2981 RMK AO2 LTG DSNT NE